createdAt,value
2018-09-02T00:03:55.958Z,87.22
2018-09-02T00:13:21.392Z,87.83
2018-09-02T00:15:49.148Z,88.53
2018-09-02T00:18:15.623Z,88.47
2018-09-02T00:20:42.518Z,88.67
2018-09-02T00:23:09.006Z,88.90
2018-09-02T00:25:35.468Z,88.95
2018-09-02T00:28:02.462Z,89.06
2018-09-02T00:42:59.915Z,89.90
2018-09-02T00:49:19.295Z,91.36
2018-09-02T00:58:49.641Z,90.90
2018-09-02T01:01:16.304Z,91.23
2018-09-02T01:03:43.352Z,91.47
2018-09-02T01:06:09.825Z,91.51
2018-09-02T01:08:36.301Z,91.60
2018-09-02T01:22:49.117Z,93.22
2018-09-02T01:25:15.780Z,93.12
2018-09-02T01:27:42.939Z,92.85
2018-09-02T01:30:09.604Z,93.26
2018-09-02T01:32:36.196Z,93.36
2018-09-02T01:35:02.725Z,93.15
2018-09-02T01:37:29.778Z,93.52
2018-09-02T01:39:56.485Z,93.83
2018-09-02T01:42:22.942Z,93.96
2018-09-02T01:44:49.841Z,94.32
2018-09-02T01:47:16.333Z,93.76
2018-09-02T01:49:42.885Z,93.30
2018-09-02T01:52:09.737Z,93.31
2018-09-02T01:54:36.217Z,93.62
2018-09-02T01:57:02.677Z,93.47
2018-09-02T01:59:29.662Z,93.59
2018-09-02T02:01:56.150Z,93.61
2018-09-02T02:04:22.663Z,93.96
2018-09-02T02:06:49.548Z,94.16
2018-09-02T02:09:16.043Z,94.20
2018-09-02T02:11:42.541Z,94.59
2018-09-02T02:14:09.482Z,94.61
2018-09-02T02:16:35.970Z,94.70
2018-09-02T02:19:02.466Z,94.70
2018-09-02T02:21:30.063Z,94.57
2018-09-02T02:23:56.534Z,95.09
2018-09-02T02:31:36.993Z,96.34
2018-09-02T02:34:03.689Z,95.92
2018-09-02T02:53:37.400Z,95.66
2018-09-02T02:56:04.713Z,95.78
2018-09-02T02:58:31.226Z,95.95
2018-09-02T03:00:58.115Z,96.42
2018-09-02T03:03:24.592Z,96.68
2018-09-02T03:05:51.075Z,96.90
2018-09-02T03:08:17.588Z,97.33
2018-09-02T03:10:44.496Z,97.45
2018-09-02T03:13:10.978Z,96.85
2018-09-02T03:15:37.456Z,97.01
2018-09-02T03:18:04.376Z,96.94
2018-09-02T03:20:30.905Z,96.69
2018-09-02T03:22:57.365Z,96.42
2018-09-02T03:25:24.283Z,96.58
2018-09-02T03:27:50.765Z,96.85
2018-09-02T03:30:17.246Z,96.65
2018-09-02T03:32:43.779Z,96.72
2018-09-02T03:35:10.598Z,97.44
2018-09-02T03:37:37.065Z,97.33
2018-09-02T03:40:03.566Z,97.95
2018-09-02T03:42:30.505Z,97.78
2018-09-02T03:44:56.993Z,97.75
2018-09-02T03:47:23.492Z,97.68
2018-09-02T03:49:49.990Z,97.36
2018-09-02T03:52:16.542Z,97.18
2018-09-02T03:54:43.002Z,97.66
2018-09-02T03:57:09.469Z,97.47
2018-09-02T03:59:36.349Z,97.47
2018-09-02T04:02:02.836Z,97.34
2018-09-02T04:04:29.375Z,96.70
2018-09-02T04:06:55.889Z,96.63
2018-09-02T04:09:22.744Z,96.36
2018-09-02T04:11:49.237Z,96.12
2018-09-02T04:14:15.753Z,96.53
2018-09-02T04:16:42.262Z,96.65
2018-09-02T04:19:09.164Z,96.56
2018-09-02T04:21:35.653Z,97.04
2018-09-02T04:24:02.141Z,97.44
2018-09-02T04:26:28.625Z,97.76
2018-09-02T04:28:55.496Z,97.55
2018-09-02T04:31:22.026Z,97.58
2018-09-02T04:33:48.572Z,97.72
2018-09-02T04:36:15.395Z,97.78
2018-09-02T04:38:41.845Z,98.12
2018-09-02T04:41:08.335Z,98.21
2018-09-02T04:43:35.197Z,98.41
2018-09-02T04:46:01.655Z,98.82
2018-09-02T04:48:28.113Z,99.01
2018-09-02T04:50:54.627Z,98.91
2018-09-02T04:53:21.110Z,98.96
2018-09-02T04:55:47.602Z,99.04
2018-09-02T04:58:14.429Z,99.11
2018-09-02T05:00:40.913Z,99.06
2018-09-02T05:03:07.394Z,99.04
2018-09-02T05:05:34.343Z,98.45
2018-09-02T05:08:00.814Z,97.75
2018-09-02T05:10:27.261Z,98.15
2018-09-02T05:12:53.742Z,97.89
2018-09-02T05:15:20.658Z,98.30
2018-09-02T05:17:47.118Z,98.39
2018-09-02T05:20:13.582Z,97.92
2018-09-02T05:22:40.360Z,98.05
2018-09-02T05:25:06.820Z,98.02
2018-09-02T05:27:33.301Z,98.60
2018-09-02T05:29:59.784Z,98.09
2018-09-02T05:32:26.705Z,97.28
2018-09-02T05:34:53.193Z,97.78
2018-09-02T05:37:19.704Z,97.72
2018-09-02T05:39:46.435Z,97.94
2018-09-02T05:42:13.261Z,97.53
2018-09-02T05:44:40.373Z,97.27
2018-09-02T05:47:06.868Z,96.68
2018-09-02T05:54:42.431Z,96.42
2018-09-02T06:10:34.062Z,92.37
2018-09-02T06:56:46.542Z,81.78
2018-09-02T07:03:32.659Z,82.10
2018-09-02T07:05:59.168Z,82.00
2018-09-02T07:08:26.168Z,81.35
2018-09-02T07:10:52.646Z,80.64
2018-09-02T07:13:19.136Z,80.43
2018-09-02T07:15:46.110Z,78.50
2018-09-02T07:18:13.266Z,77.92
2018-09-02T07:39:54.906Z,71.84
2018-09-02T07:51:23.651Z,69.02
2018-09-02T08:44:35.693Z,57.97
2018-09-02T08:47:02.215Z,58.05
2018-09-02T08:49:29.251Z,56.50
2018-09-02T09:00:23.179Z,54.68
2018-09-02T09:38:23.443Z,48.88
2018-09-02T09:47:17.243Z,48.32
2018-09-02T10:05:39.511Z,46.64
2018-09-02T10:09:22.987Z,46.86
2018-09-02T10:18:21.922Z,47.09
2018-09-02T10:20:48.694Z,48.04
2018-09-02T10:28:53.670Z,46.61
2018-09-02T10:45:26.225Z,46.57
2018-09-02T10:58:10.951Z,45.18
2018-09-02T11:00:37.520Z,44.38
2018-09-02T11:03:04.613Z,44.49
2018-09-02T11:16:47.731Z,42.30
2018-09-02T11:23:54.169Z,41.38
2018-09-02T11:26:21.588Z,41.88
2018-09-02T11:29:48.026Z,42.24
2018-09-02T11:32:14.680Z,41.52
2018-09-02T11:34:41.295Z,41.32
2018-09-02T11:43:19.850Z,39.40
2018-09-02T11:55:00.610Z,39.48
2018-09-02T12:08:22.418Z,38.28
2018-09-02T12:28:29.987Z,37.09
2018-09-02T12:30:56.754Z,37.48
2018-09-02T12:44:56.260Z,35.79
2018-09-02T15:06:50.195Z,29.54
2018-09-02T16:34:05.843Z,41.34
2018-09-02T16:41:07.704Z,43.32
2018-09-02T16:44:55.629Z,43.29
2018-09-02T19:24:18.718Z,55.06
2018-09-02T19:26:45.401Z,55.96
2018-09-02T19:46:17.676Z,60.41
2018-09-02T19:54:23.893Z,60.89
2018-09-02T20:09:51.702Z,61.78
2018-09-02T20:19:16.432Z,61.44
2018-09-02T20:43:22.409Z,62.41
2018-09-02T20:45:50.481Z,62.58
2018-09-02T20:48:17.000Z,62.97
2018-09-02T20:53:21.662Z,62.88
2018-09-02T20:55:48.133Z,62.67
2018-09-02T20:58:15.611Z,62.67
2018-09-02T21:00:43.317Z,63.11
